Terminal Aerodrome Forecast
Issued by NWS Bismarck, ND

Home | Current Version | Previous Version | Graphics & Text | Print | Product List | Glossary On
Versions: 1 2 3 4 5 6 7 8 9 10 11 12 13 14 15 16 17
000
FTUS43 KBIS 210500
TAFBIS
TAF
KBIS 210525Z 2106/2206 13005KT P6SM SKC
     FM211500 06011KT P6SM SCT100
      TEMPO 2120/2124 VRB30G40KT 3SM +TSRA BKN050CB
     FM220400 36012KT P6SM -SHRA BKN050=

USA.gov is the U.S. government's official web portal to all federal, state and local government web resources and services.